KBPC

Pampa

Pampa, Texas, USA
METAR KBPC 251540Z AUTO 25012KT 10SM CLR 28/13 A2995 RMK AO2
Observed Flight Rules
May-25 @ 15:40 UTC (7 hours ago) Visual Flight Rules
Wind Visibility Clouds
250° at 12 knots 10 miles
  • Clear skies
Temperatures Readings
Current 28°C / 82°F
Dewpoint 13°C / 55°F
Humidity 40%
Altimeter 29.95" Hg
Pressure 1014 hPa
Elevation 845
METAR KBPC 251540Z AUTO 25012KT 10SM CLR 28/13 A2995 RMK AO2
Observed Flight Rules
May-25 @ 15:40 UTC
(7 hours ago)
VFR
Wind Visibility
250° at 12 knots 10 miles
Clouds
  • Clear skies
Temperature Dewpoint
28°C / 82°F 13°C / 55°F
Humidity Altimeter Pressure
40% 29.95" Hg 1014 hPa